Time;durP1;ratioP1;P1;durP2;ratioP2;P2;SDS_P1;SDS_P2;PMS_P1;PMS_P2;Temp;Humidity;BMP_temperature;BMP_pressure;BME280_temperature;BME280_humidity;BME280_pressure;Samples;Min_cycle;Max_cycle;Signal;HPM_P1;HPM_P2
2022/02/25 00:09:51;;;;;;;3.83;0.93;;;;;;;3.43;88.11;100888.19;21013758;28;20040;-80
2022/02/25 00:19:53;;;;;;;4.25;1.00;;;;;;;3.38;86.39;100900.19;20996921;28;20089;-80
2022/02/25 00:29:55;;;;;;;5.90;0.75;;;;;;;3.23;87.39;100922.28;20996801;28;20076;-80
2022/02/25 00:39:58;;;;;;;4.13;0.68;;;;;;;3.09;87.55;100944.38;20994881;28;20140;-80
2022/02/25 00:49:59;;;;;;;5.68;0.90;;;;;;;2.87;88.89;100944.72;21015475;28;20052;-80
2022/02/25 01:00:03;;;;;;;4.35;0.93;;;;;;;2.76;88.89;100955.66;21002350;28;20070;-80
2022/02/25 01:10:07;;;;;;;4.37;0.90;;;;;;;2.66;90.55;100979.56;21019063;28;20070;-80
2022/02/25 01:20:09;;;;;;;7.07;1.13;;;;;;;2.63;89.44;100984.63;21029853;28;20052;-80
2022/02/25 01:30:12;;;;;;;5.45;1.17;;;;;;;2.46;90.23;100996.25;21016283;28;20040;-80
2022/02/25 01:40:14;;;;;;;4.78;0.88;;;;;;;2.34;91.00;101001.09;20987719;28;20079;-81
2022/02/25 01:50:17;;;;;;;4.95;0.85;;;;;;;2.27;90.90;101006.09;20985880;28;20138;-80
2022/02/25 02:00:20;;;;;;;7.65;0.93;;;;;;;2.19;92.12;101012.75;20988588;28;20123;-81
2022/02/25 02:10:23;;;;;;;7.00;1.48;;;;;;;2.15;91.93;101016.06;20996989;28;20123;-81
2022/02/25 02:20:26;;;;;;;4.30;0.80;;;;;;;2.05;93.41;101011.47;20982452;28;20049;-80
2022/02/25 02:30:29;;;;;;;5.70;1.05;;;;;;;1.98;94.07;101012.16;20981753;28;20055;-81
2022/02/25 02:40:32;;;;;;;10.85;1.30;;;;;;;2.09;93.12;101023.66;20994337;28;20040;-81
2022/02/25 02:50:35;;;;;;;7.30;1.38;;;;;;;1.98;95.41;101037.97;21008132;28;20052;-81
2022/02/25 03:00:40;;;;;;;7.22;1.38;;;;;;;1.99;95.56;101030.25;21003114;28;20058;-81
2022/02/25 03:10:44;;;;;;;5.43;1.33;;;;;;;1.92;95.67;101033.50;20989666;28;20479;-81
2022/02/25 03:20:45;;;;;;;6.20;1.15;;;;;;;1.90;95.90;101044.59;21007824;28;20074;-81
2022/02/25 03:30:47;;;;;;;11.52;1.25;;;;;;;1.84;96.35;101047.03;21001617;28;20101;-80
2022/02/25 03:40:50;;;;;;;8.27;1.58;;;;;;;1.72;97.55;101061.28;21020794;28;20040;-80
2022/02/25 03:50:51;;;;;;;7.47;1.23;;;;;;;1.69;98.25;101071.53;20995880;28;20074;-80
2022/02/25 04:00:54;;;;;;;10.10;1.60;;;;;;;1.73;97.27;101082.84;20985441;28;20059;-80
2022/02/25 04:10:57;;;;;;;9.27;1.50;;;;;;;1.75;97.41;101099.25;21001946;28;20059;-80
2022/02/25 04:21:01;;;;;;;13.48;2.20;;;;;;;1.77;97.20;101101.06;20983516;28;20047;-80
2022/02/25 04:31:03;;;;;;;10.23;1.42;;;;;;;1.71;98.29;101105.13;20995781;28;20096;-80
2022/02/25 04:41:06;;;;;;;12.05;1.95;;;;;;;1.76;97.39;101107.03;20996863;28;20079;-80
2022/02/25 04:51:10;;;;;;;11.85;1.83;;;;;;;1.68;98.32;101118.84;20998681;28;20052;-80
2022/02/25 05:01:12;;;;;;;12.63;2.53;;;;;;;1.62;99.19;101122.91;20993628;28;20068;-80
2022/02/25 05:11:17;;;;;;;11.85;1.95;;;;;;;1.54;98.83;101120.09;20995211;28;20425;-80
2022/02/25 05:21:18;;;;;;;13.35;2.78;;;;;;;1.48;99.03;101143.97;20995555;28;20063;-80
2022/02/25 05:31:20;;;;;;;5.47;1.70;;;;;;;1.37;99.93;101141.88;20991232;28;20463;-81
2022/02/25 05:41:23;;;;;;;14.68;2.22;;;;;;;1.42;99.58;101154.09;20995362;28;20056;-80
2022/02/25 05:51:25;;;;;;;13.18;2.38;;;;;;;1.46;98.59;101155.97;21013121;28;20062;-80
2022/02/25 06:01:27;;;;;;;15.05;2.55;;;;;;;1.50;98.82;101169.84;20979289;28;20056;-80
2022/02/25 06:11:30;;;;;;;13.43;2.13;;;;;;;1.54;98.12;101177.75;20979505;28;20070;-80
2022/02/25 06:21:32;;;;;;;12.30;2.40;;;;;;;1.65;96.95;101190.13;20978437;28;20131;-81
2022/02/25 06:31:37;;;;;;;8.52;2.03;;;;;;;1.63;97.13;101215.00;20976238;28;20048;-81
2022/02/25 06:41:39;;;;;;;12.02;3.33;;;;;;;1.69;96.96;101218.69;20993472;28;20052;-81
2022/02/25 06:51:41;;;;;;;16.00;4.40;;;;;;;1.68;96.92;101219.50;21020570;28;20106;-81
2022/02/25 07:01:43;;;;;;;16.05;3.17;;;;;;;1.89;95.24;101228.78;20993820;28;20478;-81
2022/02/25 07:11:47;;;;;;;11.55;3.00;;;;;;;2.13;93.74;101239.91;21004628;28;20075;-81
2022/02/25 07:21:49;;;;;;;15.95;3.10;;;;;;;2.26;93.08;101252.38;21005217;28;20408;-84
2022/02/25 07:31:53;;;;;;;21.73;6.05;;;;;;;2.26;93.67;101283.41;20989874;28;20044;-81
2022/02/25 07:41:55;;;;;;;14.20;2.97;;;;;;;2.31;92.43;101286.13;21040692;28;20155;-80
2022/02/25 07:51:56;;;;;;;13.85;3.50;;;;;;;2.41;92.32;101295.06;21012565;28;20070;-81
2022/02/25 08:01:59;;;;;;;15.88;3.67;;;;;;;2.50;92.62;101297.94;20987786;28;20056;-80
2022/02/25 08:12:03;;;;;;;12.35;3.05;;;;;;;2.74;91.31;101310.75;20926473;28;20395;-80
2022/02/25 08:22:05;;;;;;;15.50;2.83;;;;;;;3.04;89.44;101306.47;20941514;28;20041;-80
2022/02/25 08:32:07;;;;;;;15.52;3.30;;;;;;;3.26;88.34;101312.28;20921537;28;20053;-79
2022/02/25 08:42:08;;;;;;;16.23;2.70;;;;;;;3.49;86.41;101307.72;20952698;28;20056;-79
2022/02/25 08:52:11;;;;;;;13.43;2.78;;;;;;;3.68;85.16;101304.78;21013587;28;20488;-80
2022/02/25 09:02:14;;;;;;;11.30;3.15;;;;;;;3.95;84.72;101311.56;20978875;28;20040;-78
2022/02/25 09:12:16;;;;;;;20.92;4.50;;;;;;;3.98;83.97;101299.56;20986209;28;20052;-80
2022/02/25 09:22:19;;;;;;;22.70;6.57;;;;;;;4.30;85.16;101317.59;20968811;28;20049;-81
2022/02/25 09:32:24;;;;;;;18.48;2.90;;;;;;;4.44;82.68;101312.75;21014999;28;20127;-80
2022/02/25 09:42:26;;;;;;;10.85;3.47;;;;;;;4.96;80.65;101300.97;21012892;28;20052;-79
2022/02/25 09:52:28;;;;;;;13.13;3.58;;;;;;;5.04;77.51;101309.81;21005813;28;20117;-79
2022/02/25 10:02:42;;;;;;;17.13;2.97;;;;;;;5.47;75.88;101306.38;21011811;28;20098;-80
2022/02/25 10:12:56;;;;;;;9.23;2.60;;;;;;;6.30;75.05;101303.56;20997086;28;20074;-80
2022/02/25 10:22:58;;;;;;;13.32;2.50;;;;;;;7.19;69.05;101299.63;21003880;28;20056;-80
2022/02/25 10:33:00;;;;;;;13.10;3.10;;;;;;;6.97;67.35;101301.06;21023619;28;20048;-81
2022/02/25 10:43:06;;;;;;;16.30;2.85;;;;;;;6.81;69.37;101302.59;21016388;28;20094;-80
2022/02/25 10:53:09;;;;;;;15.18;2.90;;;;;;;6.63;68.72;101295.38;21007404;28;20526;-80
2022/02/25 11:03:17;;;;;;;11.35;2.50;;;;;;;6.52;67.94;101303.91;20994201;28;20081;-80
2022/02/25 11:13:20;;;;;;;16.15;2.55;;;;;;;6.25;70.67;101292.19;21013887;28;20064;-83
2022/02/25 11:23:22;;;;;;;16.80;2.22;;;;;;;6.49;70.15;101298.63;20996169;28;20489;-82
2022/02/25 11:33:25;;;;;;;11.63;1.90;;;;;;;6.62;70.37;101285.84;21002960;28;20429;-80
2022/02/25 11:43:48;;;;;;;8.15;2.15;;;;;;;6.58;64.92;101283.16;20994775;28;20045;-84
2022/02/25 11:54:33;;;;;;;9.05;1.70;;;;;;;6.78;64.61;101276.50;21011363;28;20080;-81
2022/02/25 12:04:39;;;;;;;10.87;2.17;;;;;;;6.77;64.31;101277.38;20995985;28;20520;-82
2022/02/25 12:15:00;;;;;;;11.27;2.50;;;;;;;7.03;64.37;101282.91;20987697;28;20140;-81
2022/02/25 12:25:08;;;;;;;11.18;2.42;;;;;;;6.50;79.33;101296.06;20990441;28;20066;-81
2022/02/25 12:35:11;;;;;;;7.72;2.00;;;;;;;6.31;79.21;101315.69;20932198;28;20324;-84
2022/02/25 12:45:13;;;;;;;9.45;1.90;;;;;;;6.64;77.21;101325.75;20914537;28;20090;-84
2022/02/25 12:55:16;;;;;;;13.23;2.20;;;;;;;6.59;74.08;101326.53;20895619;28;20045;-84
2022/02/25 13:05:17;;;;;;;14.93;2.15;;;;;;;6.41;74.06;101328.00;20900827;28;20041;-85
2022/02/25 13:15:27;;;;;;;9.60;2.05;;;;;;;6.69;74.14;101331.03;20910597;28;20041;-84
2022/02/25 13:25:28;;;;;;;10.63;1.95;;;;;;;6.67;74.29;101335.34;20886167;28;20053;-84
2022/02/25 13:35:48;;;;;;;13.23;2.10;;;;;;;6.67;70.29;101344.03;20902705;28;20036;-84
2022/02/25 13:45:53;;;;;;;10.85;1.85;;;;;;;6.68;69.01;101345.78;20909856;28;20476;-82
2022/02/25 13:56:03;;;;;;;17.85;2.28;;;;;;;7.01;69.99;101348.84;20898219;28;20075;-82
2022/02/25 14:06:21;;;;;;;9.02;2.10;;;;;;;6.96;67.25;101348.78;20910381;28;20551;-83
2022/02/25 14:16:27;;;;;;;9.60;2.00;;;;;;;6.80;68.96;101347.69;20898107;28;20045;-80
2022/02/25 14:26:32;;;;;;;9.73;1.92;;;;;;;6.85;66.39;101345.13;20911019;28;20097;-82
2022/02/25 14:36:34;;;;;;;12.32;1.80;;;;;;;6.91;62.96;101335.72;20910340;28;20049;-82
2022/02/25 14:46:35;;;;;;;9.43;1.70;;;;;;;6.98;64.37;101330.59;20935253;28;20139;-82
2022/02/25 14:56:37;;;;;;;15.85;2.35;;;;;;;6.89;63.99;101326.97;20914711;28;20593;-83
2022/02/25 15:06:38;;;;;;;14.10;2.30;;;;;;;7.37;62.28;101336.31;20879670;28;20430;-82
2022/02/25 15:16:41;;;;;;;7.25;1.95;;;;;;;7.37;64.41;101356.28;20898103;28;20056;-83
2022/02/25 15:26:43;;;;;;;10.40;2.45;;;;;;;7.25;64.02;101362.22;20909886;28;20092;-83
2022/02/25 15:36:45;;;;;;;13.73;2.08;;;;;;;7.23;58.89;101361.31;20926858;28;20683;-83
2022/02/25 15:46:49;;;;;;;7.63;1.60;;;;;;;7.31;60.38;101366.63;20921512;28;20124;-83
2022/02/25 15:56:51;;;;;;;11.60;1.67;;;;;;;7.15;57.57;101368.16;20916131;28;20716;-82
2022/02/25 16:06:53;;;;;;;6.57;1.80;;;;;;;7.03;57.87;101376.66;20897343;28;20072;-83
2022/02/25 16:16:56;;;;;;;14.43;5.07;;;;;;;6.80;61.60;101368.50;20919393;28;20041;-84
2022/02/25 16:26:58;;;;;;;9.55;2.50;;;;;;;6.73;61.48;101394.44;20919737;28;20041;-83
2022/02/25 16:37:02;;;;;;;11.20;2.60;;;;;;;6.58;62.32;101408.06;20905371;28;20106;-84
2022/02/25 16:47:04;;;;;;;8.10;2.20;;;;;;;6.59;60.45;101430.63;20916339;28;20041;-84
2022/02/25 16:57:07;;;;;;;7.03;1.45;;;;;;;6.48;61.07;101446.06;20919036;28;20277;-83
2022/02/25 17:07:09;;;;;;;8.73;2.03;;;;;;;6.47;62.91;101464.22;20946687;28;20087;-83
2022/02/25 17:17:12;;;;;;;13.07;2.30;;;;;;;6.39;64.06;101470.19;20923506;28;20045;-82
2022/02/25 17:27:15;;;;;;;10.95;2.40;;;;;;;6.31;66.03;101494.28;20911868;28;20750;-83
2022/02/25 17:37:18;;;;;;;9.77;2.20;;;;;;;6.14;67.25;101499.19;20903153;28;20049;-82
2022/02/25 17:47:20;;;;;;;6.93;1.73;;;;;;;5.99;67.74;101530.03;20927159;28;20045;-82
2022/02/25 17:57:23;;;;;;;6.25;1.67;;;;;;;5.67;69.92;101538.00;20943919;28;20048;-82
2022/02/25 18:07:26;;;;;;;9.77;1.92;;;;;;;5.51;72.07;101554.97;20901595;28;20068;-82
2022/02/25 18:17:28;;;;;;;8.32;2.30;;;;;;;5.26;74.54;101563.84;20881641;28;20474;-82
2022/02/25 18:27:32;;;;;;;10.63;1.77;;;;;;;5.10;76.70;101566.94;20923017;28;20040;-82
2022/02/25 18:37:35;;;;;;;8.75;2.10;;;;;;;4.88;78.47;101571.53;20995341;28;20036;-82
2022/02/25 18:47:38;;;;;;;8.07;1.83;;;;;;;4.63;80.73;101592.50;21005049;28;20102;-82
2022/02/25 18:57:40;;;;;;;8.40;2.08;;;;;;;4.37;82.86;101592.66;20977635;28;20049;-82
2022/02/25 19:07:42;;;;;;;9.90;1.90;;;;;;;4.25;84.14;101610.44;20979717;28;20140;-83
2022/02/25 19:17:45;;;;;;;7.63;1.98;;;;;;;4.09;85.95;101614.28;21026917;28;20044;-83
2022/02/25 19:27:48;;;;;;;7.03;2.13;;;;;;;3.84;88.61;101625.63;21005910;28;20144;-82
2022/02/25 19:37:52;;;;;;;10.05;1.80;;;;;;;3.67;89.76;101628.50;20984851;28;20101;-82
2022/02/25 19:47:55;;;;;;;7.88;2.40;;;;;;;3.54;91.99;101633.28;20989419;28;20080;-82
2022/02/25 19:57:57;;;;;;;9.88;2.20;;;;;;;3.37;93.99;101654.28;21007140;28;20553;-82
2022/02/25 20:08:02;;;;;;;7.63;2.10;;;;;;;3.23;95.53;101662.44;20984696;28;20041;-83
2022/02/25 20:18:08;;;;;;;10.63;2.85;;;;;;;3.18;95.83;101668.28;20987093;28;20055;-83
2022/02/25 20:28:11;;;;;;;9.45;3.13;;;;;;;2.93;97.68;101698.47;20992123;28;20048;-82
2022/02/25 20:38:12;;;;;;;7.68;2.60;;;;;;;2.83;98.21;101722.25;20982056;28;20444;-83
2022/02/25 20:48:16;;;;;;;9.50;3.23;;;;;;;2.68;99.37;101727.72;20983659;28;20045;-83
2022/02/25 20:58:18;;;;;;;16.60;4.82;;;;;;;2.54;100.00;101754.78;20980487;28;20073;-82
2022/02/25 21:08:20;;;;;;;9.80;4.20;;;;;;;2.44;100.00;101752.63;20978696;28;20056;-83
2022/02/25 21:18:26;;;;;;;13.60;6.18;;;;;;;2.37;100.00;101774.78;20957674;28;20055;-82
2022/02/25 21:28:28;;;;;;;19.80;7.28;;;;;;;2.19;100.00;101777.50;20996759;28;20056;-82
2022/02/25 21:38:30;;;;;;;12.70;3.88;;;;;;;2.13;100.00;101791.88;20989303;28;20052;-82
2022/02/25 21:48:34;;;;;;;15.75;6.28;;;;;;;2.05;100.00;101804.47;21000073;28;20048;-82
2022/02/25 21:58:38;;;;;;;12.30;4.68;;;;;;;1.92;100.00;101822.91;20994498;28;20544;-83
2022/02/25 22:08:39;;;;;;;12.65;5.47;;;;;;;1.80;100.00;101842.19;20976854;28;20509;-82
2022/02/25 22:18:41;;;;;;;12.35;5.30;;;;;;;1.68;100.00;101843.38;20985097;28;20106;-82
2022/02/25 22:28:42;;;;;;;15.43;5.72;;;;;;;1.57;100.00;101849.75;20983075;28;20439;-82
2022/02/25 22:38:44;;;;;;;24.90;8.68;;;;;;;1.64;100.00;101857.84;20999274;28;20048;-82
2022/02/25 22:48:52;;;;;;;19.05;7.60;;;;;;;1.74;100.00;101869.47;20989960;28;20473;-83
2022/02/25 23:09:14;;;;;;;9.00;3.67;;;;;;;1.40;100.00;101900.63;20979624;28;20075;-82
2022/02/25 23:19:15;;;;;;;10.77;4.60;;;;;;;1.23;100.00;101917.91;21003983;28;20166;-82
2022/02/25 23:29:17;;;;;;;12.10;5.03;;;;;;;1.12;100.00;101922.56;21004012;28;20110;-82
2022/02/25 23:39:18;;;;;;;8.45;4.65;;;;;;;1.07;100.00;101933.50;21006525;28;20040;-82
2022/02/25 23:49:20;;;;;;;10.93;4.80;;;;;;;1.07;100.00;101947.28;21018109;28;20104;-82
2022/02/25 23:59:21;;;;;;;9.50;4.28;;;;;;;1.06;100.00;101948.09;21020050;28;20057;-82
